Terminal Aerodrome Forecast
Issued by NWS

Home | Current Version | Previous Version | Text Only | Print | Product List | Glossary On
Versions: 1 2 3 4 5 6 7 8 9 10 11 12 13 14
000
FTUS44 KLZK 021326 AAA
TAFPBF
TAF AMD
KPBF 021326Z 0213/0312 00000KT P6SM BKN100 BKN250
      TEMPO 0213/0215 4SM BR
     FM021500 16006KT P6SM SCT050 BKN250
     FM030100 VRB03KT P6SM SCT250=

USA.gov is the U.S. government's official web portal to all federal, state and local government web resources and services.